createdAt,value
2023-03-29T00:03:45.311Z,96150.72
2023-03-29T00:08:50.932Z,96167.19
2023-03-29T00:13:53.686Z,96182.19
2023-03-29T00:18:56.877Z,96192.69
2023-03-29T00:23:59.480Z,96205.38
2023-03-29T00:29:01.858Z,96201.91
2023-03-29T00:34:04.551Z,96219.97
2023-03-29T00:39:07.583Z,96217.91
2023-03-29T00:44:11.452Z,96204.44
2023-03-29T00:49:15.338Z,96204.78
2023-03-29T00:54:18.650Z,96210.09
2023-03-29T00:59:21.592Z,96201.97
2023-03-29T01:04:24.019Z,96201.22
2023-03-29T01:09:27.060Z,96209.22
2023-03-29T01:14:29.913Z,96197.28
2023-03-29T01:19:33.794Z,96183.00
2023-03-29T01:24:36.364Z,96181.59
2023-03-29T01:29:39.102Z,96158.16
2023-03-29T01:34:51.954Z,96166.13
2023-03-29T01:39:54.370Z,96160.81
2023-03-29T01:44:57.139Z,96142.06
2023-03-29T01:49:59.591Z,96120.41
2023-03-29T01:55:02.058Z,96112.44
2023-03-29T02:00:15.061Z,96108.31
2023-03-29T02:05:17.860Z,96107.50
2023-03-29T02:10:20.266Z,96094.00
2023-03-29T02:15:23.645Z,96089.25
2023-03-29T02:20:26.009Z,96086.94
2023-03-29T02:25:29.523Z,96084.06
2023-03-29T02:30:32.344Z,96074.22
2023-03-29T02:35:36.171Z,96068.91
2023-03-29T02:40:38.796Z,96062.41
2023-03-29T02:45:41.476Z,96057.47
2023-03-29T02:50:45.579Z,96048.09
2023-03-29T02:55:48.874Z,96031.19
2023-03-29T03:00:54.850Z,96035.41
2023-03-29T03:05:57.157Z,96028.13
2023-03-29T03:11:00.815Z,96017.91
2023-03-29T03:16:03.862Z,96017.09
2023-03-29T03:21:06.202Z,96007.75
2023-03-29T03:26:08.850Z,95996.81
2023-03-29T03:31:11.664Z,95987.00
2023-03-29T03:36:14.154Z,95983.75
2023-03-29T03:41:18.672Z,95981.00
2023-03-29T03:46:22.155Z,95977.81
2023-03-29T03:51:25.308Z,95967.75
2023-03-29T03:56:29.896Z,95962.16
2023-03-29T04:01:33.523Z,95956.97
2023-03-29T04:06:36.258Z,95947.28
2023-03-29T04:11:38.804Z,95941.72
2023-03-29T04:16:41.177Z,95954.88
2023-03-29T04:21:45.913Z,95954.31
2023-03-29T04:26:48.468Z,95926.84
2023-03-29T04:31:50.943Z,95926.31
2023-03-29T04:36:54.927Z,95921.88
2023-03-29T04:41:57.793Z,95909.34
2023-03-29T04:47:03.213Z,95915.97
2023-03-29T04:52:08.355Z,95915.91
2023-03-29T04:57:11.456Z,95899.13
2023-03-29T05:02:13.989Z,95902.31
2023-03-29T05:07:17.986Z,95888.28
2023-03-29T05:12:21.182Z,95892.75
2023-03-29T05:17:24.084Z,95901.91
2023-03-29T05:22:26.444Z,95902.31
2023-03-29T05:27:29.752Z,95901.63
2023-03-29T05:32:32.971Z,95890.19
2023-03-29T05:37:35.643Z,95897.72
2023-03-29T05:42:38.698Z,95904.31
2023-03-29T05:47:42.411Z,95906.50
2023-03-29T05:52:46.075Z,95900.91
2023-03-29T05:57:49.664Z,95898.22
2023-03-29T06:02:52.748Z,95894.91
2023-03-29T06:07:56.737Z,95887.69
2023-03-29T06:13:00.179Z,95886.84
2023-03-29T06:18:03.783Z,95881.72
2023-03-29T06:23:06.357Z,95883.50
2023-03-29T06:28:08.889Z,95889.41
2023-03-29T06:33:14.211Z,95905.59
2023-03-29T06:38:19.542Z,95906.78
2023-03-29T06:43:22.756Z,95911.97
2023-03-29T06:48:25.305Z,95907.91
2023-03-29T06:53:28.155Z,95906.13
2023-03-29T06:58:30.815Z,95903.72
2023-03-29T07:03:35.283Z,95895.94
2023-03-29T07:08:43.432Z,95890.72
2023-03-29T07:13:46.402Z,95897.81
2023-03-29T07:18:49.687Z,95901.66
2023-03-29T07:23:52.557Z,95896.72
2023-03-29T07:28:56.256Z,95883.75
2023-03-29T07:34:00.753Z,95892.63
2023-03-29T07:39:15.443Z,95903.25
2023-03-29T07:44:19.476Z,95901.66
2023-03-29T07:49:22.303Z,95892.91
2023-03-29T07:54:25.770Z,95915.25
2023-03-29T07:59:28.317Z,95906.88
2023-03-29T08:04:31.722Z,95912.09
2023-03-29T08:09:37.334Z,95923.44
2023-03-29T08:14:39.711Z,95911.84
2023-03-29T08:19:42.446Z,95916.69
2023-03-29T08:24:53.924Z,95917.69
2023-03-29T08:29:56.477Z,95913.44
2023-03-29T08:34:59.272Z,95908.38
2023-03-29T08:40:01.628Z,95914.00
2023-03-29T08:45:04.665Z,95915.59
2023-03-29T08:50:07.616Z,95916.69
2023-03-29T08:55:11.303Z,95911.16
2023-03-29T09:00:14.118Z,95908.44
2023-03-29T09:05:17.347Z,95904.50
2023-03-29T09:10:20.582Z,95885.53
2023-03-29T09:15:23.632Z,95902.25
2023-03-29T09:20:27.141Z,95911.34
2023-03-29T09:25:31.861Z,95907.75
2023-03-29T09:30:35.620Z,95910.88
2023-03-29T09:35:38.004Z,95905.88
2023-03-29T09:40:41.344Z,95916.13
2023-03-29T09:45:43.860Z,95906.75
2023-03-29T09:50:47.336Z,95911.16
2023-03-29T09:55:50.320Z,95905.63
2023-03-29T10:00:53.080Z,95895.94
2023-03-29T10:05:55.515Z,95894.50
2023-03-29T10:10:58.781Z,95888.47
2023-03-29T10:16:01.527Z,95877.97
2023-03-29T10:21:04.323Z,95867.22
2023-03-29T10:26:06.840Z,95880.31
2023-03-29T10:31:09.325Z,95865.81
2023-03-29T10:36:21.734Z,95874.81
2023-03-29T10:41:24.491Z,95860.25
2023-03-29T10:46:27.360Z,95860.41
2023-03-29T10:51:30.327Z,95860.41
2023-03-29T10:56:32.703Z,95863.19
2023-03-29T11:01:35.852Z,95853.13
2023-03-29T11:06:38.414Z,95855.63
2023-03-29T11:11:44.796Z,95850.91
2023-03-29T11:16:48.134Z,95845.38
2023-03-29T11:21:51.063Z,95845.13
2023-03-29T11:26:54.595Z,95839.22
2023-03-29T11:31:57.242Z,95844.94
2023-03-29T11:36:59.685Z,95845.94
2023-03-29T11:42:03.828Z,95838.34
2023-03-29T11:47:07.295Z,95848.63
2023-03-29T11:52:10.786Z,95840.00
2023-03-29T11:57:13.172Z,95846.84
2023-03-29T12:02:15.913Z,95825.41
2023-03-29T12:07:19.191Z,95829.72
2023-03-29T12:12:21.544Z,95818.44
2023-03-29T12:17:24.808Z,95818.66
2023-03-29T12:22:27.165Z,95828.44
2023-03-29T12:27:29.513Z,95822.34
2023-03-29T12:32:32.296Z,95812.78
2023-03-29T12:37:40.075Z,95800.81
2023-03-29T12:42:42.706Z,95786.78
2023-03-29T12:47:45.348Z,95801.81
2023-03-29T12:52:48.192Z,95798.28
2023-03-29T12:57:50.614Z,95792.00
2023-03-29T13:03:03.268Z,95782.59
2023-03-29T13:08:05.810Z,95793.97
2023-03-29T13:13:08.524Z,95790.31
2023-03-29T13:18:12.345Z,95770.44
2023-03-29T13:23:17.449Z,95775.22
2023-03-29T13:28:20.478Z,95779.38
2023-03-29T13:33:23.177Z,95766.34
2023-03-29T13:38:28.642Z,95752.66
2023-03-29T13:43:31.809Z,95740.44
2023-03-29T13:48:34.448Z,95740.56
2023-03-29T13:53:37.728Z,95747.84
2023-03-29T13:58:41.362Z,95739.50
2023-03-29T14:03:44.755Z,95741.72
2023-03-29T14:08:47.180Z,95743.88
2023-03-29T14:13:49.614Z,95736.56
2023-03-29T14:18:54.213Z,95735.06
2023-03-29T14:23:57.418Z,95719.84
2023-03-29T14:29:01.096Z,95723.84
2023-03-29T14:34:03.813Z,95730.09
2023-03-29T14:39:06.177Z,95740.22
2023-03-29T14:44:09.353Z,95723.22
2023-03-29T14:49:11.923Z,95741.75
2023-03-29T14:54:14.638Z,95729.41
2023-03-29T14:59:17.767Z,95744.72
2023-03-29T15:04:21.015Z,95738.94
2023-03-29T15:09:24.256Z,95746.06
2023-03-29T15:14:26.900Z,95735.13
2023-03-29T15:19:30.097Z,95739.28
2023-03-29T15:24:33.297Z,95756.38
2023-03-29T15:29:36.979Z,95748.81
2023-03-29T15:34:39.721Z,95760.06
2023-03-29T15:39:42.111Z,95749.03
2023-03-29T15:44:44.520Z,95750.63
2023-03-29T15:49:48.016Z,95739.78
2023-03-29T15:54:50.775Z,95735.03
2023-03-29T15:59:53.151Z,95727.47
2023-03-29T16:04:55.508Z,95730.69
2023-03-29T16:09:58.057Z,95729.34
2023-03-29T16:15:00.613Z,95723.03
2023-03-29T16:20:04.892Z,95724.28
2023-03-29T16:25:08.359Z,95733.25
2023-03-29T16:30:11.437Z,95734.59
2023-03-29T16:35:14.755Z,95734.91
2023-03-29T16:40:18.222Z,95734.41
2023-03-29T16:45:20.694Z,95724.25
2023-03-29T16:50:23.859Z,95726.47
2023-03-29T16:55:26.299Z,95732.53
2023-03-29T17:00:29.427Z,95728.53
2023-03-29T17:05:33.806Z,95735.91
2023-03-29T17:10:36.277Z,95713.94
2023-03-29T17:15:40.644Z,95728.72
2023-03-29T17:20:43.579Z,95709.41
2023-03-29T17:25:46.008Z,95709.41
2023-03-29T17:30:58.349Z,95714.22
2023-03-29T17:36:01.116Z,95720.94
2023-03-29T17:41:04.521Z,95723.34
2023-03-29T17:46:07.044Z,95713.69
2023-03-29T17:51:09.407Z,95730.38
2023-03-29T17:56:13.104Z,95719.88
2023-03-29T18:01:16.032Z,95721.75
2023-03-29T18:06:20.217Z,95727.41
2023-03-29T18:11:24.576Z,95730.84
2023-03-29T18:16:27.777Z,95731.69
2023-03-29T18:21:30.188Z,95720.69
2023-03-29T18:26:33.445Z,95730.09
2023-03-29T18:31:36.154Z,95736.81
2023-03-29T18:36:38.864Z,95727.13
2023-03-29T18:41:41.284Z,95728.75
2023-03-29T18:46:44.783Z,95727.13
2023-03-29T18:51:49.590Z,95730.91
2023-03-29T18:56:52.917Z,95738.94
2023-03-29T19:01:55.846Z,95744.31
2023-03-29T19:06:59.759Z,95737.59
2023-03-29T19:12:02.093Z,95737.88
2023-03-29T19:17:04.458Z,95739.47
2023-03-29T19:22:09.004Z,95737.84
2023-03-29T19:27:13.408Z,95738.41
2023-03-29T19:32:16.696Z,95732.50
2023-03-29T19:37:20.309Z,95728.19
2023-03-29T19:42:22.753Z,95733.81
2023-03-29T19:47:26.231Z,95731.94
2023-03-29T19:52:30.234Z,95727.13
2023-03-29T19:57:33.662Z,95728.72
2023-03-29T20:02:37.046Z,95726.59
2023-03-29T20:07:45.593Z,95733.84
2023-03-29T20:12:48.704Z,95735.19
2023-03-29T20:17:53.108Z,95735.72
2023-03-29T20:23:04.354Z,95723.94
2023-03-29T20:28:07.576Z,95715.84
2023-03-29T20:33:10.339Z,95715.56
2023-03-29T20:38:13.845Z,95713.13
2023-03-29T20:43:18.786Z,95705.09
2023-03-29T20:48:23.072Z,95715.28
2023-03-29T20:53:34.634Z,95691.72
2023-03-29T20:58:46.970Z,95688.47
2023-03-29T21:03:51.696Z,95672.16
2023-03-29T21:09:04.930Z,95668.09
2023-03-29T21:14:09.160Z,95651.72
2023-03-29T21:19:11.502Z,95649.84
2023-03-29T21:24:14.346Z,95623.31
2023-03-29T21:29:17.451Z,95632.16
2023-03-29T21:34:19.788Z,95630.53
2023-03-29T21:39:22.933Z,95636.19
2023-03-29T21:44:26.168Z,95628.38
2023-03-29T21:49:29.303Z,95628.16
2023-03-29T21:54:31.613Z,95631.59
2023-03-29T21:59:34.639Z,95632.44
2023-03-29T22:04:37.775Z,95621.41
2023-03-29T22:09:41.394Z,95628.91
2023-03-29T22:14:44.557Z,95630.00
2023-03-29T22:19:47.529Z,95621.94
2023-03-29T22:24:59.867Z,95617.66
2023-03-29T22:30:02.186Z,95606.13
2023-03-29T22:35:04.526Z,95610.16
2023-03-29T22:40:09.386Z,95602.13
2023-03-29T22:45:13.994Z,95590.59
2023-03-29T22:50:17.895Z,95589.50
2023-03-29T22:55:21.486Z,95584.97
2023-03-29T23:00:24.205Z,95578.81
2023-03-29T23:05:36.538Z,95577.44
2023-03-29T23:10:39.748Z,95565.13
2023-03-29T23:15:42.988Z,95566.47
2023-03-29T23:20:47.068Z,95557.06
2023-03-29T23:25:49.543Z,95553.81
2023-03-29T23:30:52.755Z,95550.91
2023-03-29T23:35:56.277Z,95554.38
2023-03-29T23:41:00.281Z,95536.94
2023-03-29T23:46:03.694Z,95531.84
2023-03-29T23:51:07.677Z,95525.91
2023-03-29T23:56:10.052Z,95530.75
